Time;durP1;ratioP1;P1;durP2;ratioP2;P2;SDS_P1;SDS_P2;PMS_P1;PMS_P2;Temp;Humidity;BMP_temperature;BMP_pressure;BME280_temperature;BME280_humidity;BME280_pressure;Samples;Min_cycle;Max_cycle;Signal;HPM_P1;HPM_P2
2022/03/06 00:02:13;;;;;;;15.65;8.77;;;;;;;;;;4972586;28;20034;-54
2022/03/06 00:04:39;;;;;;;15.52;8.82;;;;;;;;;;4990380;28;20033;-53
2022/03/06 00:07:06;;;;;;;15.65;9.05;;;;;;;;;;4972068;28;20022;-52
2022/03/06 00:09:32;;;;;;;18.15;9.85;;;;;;;;;;4989045;28;20025;-53
2022/03/06 00:11:58;;;;;;;14.98;9.13;;;;;;;;;;4990166;28;20033;-53
2022/03/06 00:14:25;;;;;;;15.45;9.25;;;;;;;;;;4990411;28;20034;-53
2022/03/06 00:16:53;;;;;;;19.15;10.23;;;;;;;;;;4990601;28;20473;-53
2022/03/06 00:19:19;;;;;;;19.85;10.85;;;;;;;;;;4988938;28;20493;-54
2022/03/06 00:21:46;;;;;;;19.55;10.73;;;;;;;;;;4972238;28;20031;-53
2022/03/06 00:24:12;;;;;;;19.52;10.20;;;;;;;;;;4989907;28;20431;-53
2022/03/06 00:26:39;;;;;;;17.85;9.88;;;;;;;;;;4989925;28;20026;-53
2022/03/06 00:29:07;;;;;;;18.33;9.80;;;;;;;;;;4988881;28;20030;-53
2022/03/06 00:31:33;;;;;;;18.70;9.77;;;;;;;;;;4989891;28;20066;-54
2022/03/06 00:33:59;;;;;;;16.77;9.05;;;;;;;;;;4989848;28;20590;-54
2022/03/06 00:36:25;;;;;;;16.23;9.00;;;;;;;;;;4990069;28;20026;-53
2022/03/06 00:38:52;;;;;;;15.75;8.55;;;;;;;;;;4989460;28;20019;-54
2022/03/06 00:41:18;;;;;;;15.98;8.63;;;;;;;;;;4987913;28;20125;-54
2022/03/06 00:43:44;;;;;;;16.25;8.48;;;;;;;;;;4989080;28;20042;-53
2022/03/06 00:46:10;;;;;;;16.30;8.55;;;;;;;;;;4989426;28;20430;-53
2022/03/06 00:48:36;;;;;;;18.25;8.77;;;;;;;;;;4989474;28;20037;-52
2022/03/06 00:51:02;;;;;;;17.08;8.48;;;;;;;;;;4988850;28;20034;-53
2022/03/06 00:53:28;;;;;;;14.70;8.10;;;;;;;;;;4972100;28;20030;-52
2022/03/06 00:55:55;;;;;;;14.55;8.07;;;;;;;;;;4988280;28;20041;-53
2022/03/06 00:58:22;;;;;;;14.73;8.18;;;;;;;;;;4989417;28;20516;-54
2022/03/06 01:00:49;;;;;;;15.63;8.57;;;;;;;;;;4989171;28;20034;-53
2022/03/06 01:03:19;;;;;;;13.27;7.85;;;;;;;;;;4989616;28;20026;-54
2022/03/06 01:05:46;;;;;;;16.92;8.77;;;;;;;;;;4988513;28;20465;-54
2022/03/06 01:08:13;;;;;;;13.15;7.68;;;;;;;;;;4989699;28;20018;-53
2022/03/06 01:10:40;;;;;;;13.18;7.70;;;;;;;;;;4971452;28;20027;-52
2022/03/06 01:13:06;;;;;;;16.55;8.43;;;;;;;;;;4988852;28;20501;-52
2022/03/06 01:15:33;;;;;;;16.88;8.20;;;;;;;;;;4987488;28;20026;-52
2022/03/06 01:18:01;;;;;;;16.50;8.20;;;;;;;;;;4988599;28;20037;-53
2022/03/06 01:20:29;;;;;;;16.63;8.70;;;;;;;;;;4988888;28;20054;-53
2022/03/06 01:22:56;;;;;;;15.18;8.50;;;;;;;;;;4989059;28;20106;-53
2022/03/06 01:25:22;;;;;;;15.98;8.32;;;;;;;;;;4970901;28;20026;-51
2022/03/06 01:27:49;;;;;;;17.55;9.00;;;;;;;;;;4988364;28;20058;-52
2022/03/06 01:30:15;;;;;;;13.45;7.68;;;;;;;;;;4989020;28;20022;-53
2022/03/06 01:32:42;;;;;;;15.15;7.93;;;;;;;;;;4988908;28;20476;-53
2022/03/06 01:35:09;;;;;;;12.23;7.53;;;;;;;;;;4988165;28;20034;-52
2022/03/06 01:37:35;;;;;;;13.98;7.68;;;;;;;;;;4988299;28;20045;-52
2022/03/06 01:40:01;;;;;;;15.82;8.38;;;;;;;;;;4988398;28;20113;-52
2022/03/06 01:42:28;;;;;;;14.07;7.80;;;;;;;;;;4988590;28;20057;-53
2022/03/06 01:44:54;;;;;;;12.70;7.22;;;;;;;;;;4988630;28;20042;-53
2022/03/06 01:47:41;;;;;;;13.23;7.40;;;;;;;;;;4987704;28;20026;-53
2022/03/06 01:50:09;;;;;;;13.15;7.95;;;;;;;;;;4988300;28;20034;-51
2022/03/06 01:52:35;;;;;;;13.82;8.00;;;;;;;;;;4980073;28;20114;-53
2022/03/06 01:55:02;;;;;;;13.73;7.72;;;;;;;;;;4968327;28;20114;-52
2022/03/06 01:57:29;;;;;;;14.95;8.60;;;;;;;;;;4986612;28;20030;-53
2022/03/06 01:59:56;;;;;;;11.80;7.45;;;;;;;;;;4987578;28;20517;-51
2022/03/06 02:02:22;;;;;;;13.60;7.68;;;;;;;;;;4988322;28;20405;-52
2022/03/06 02:04:48;;;;;;;12.10;7.30;;;;;;;;;;4987904;28;20644;-52
2022/03/06 02:07:15;;;;;;;12.65;7.43;;;;;;;;;;4986334;28;20073;-53
2022/03/06 02:09:41;;;;;;;13.55;7.43;;;;;;;;;;4984592;28;20034;-56
2022/03/06 02:12:23;;;;;;;13.50;7.60;;;;;;;;;;4986438;28;20133;-53
2022/03/06 02:14:50;;;;;;;13.77;7.93;;;;;;;;;;4970454;28;20070;-53
2022/03/06 02:17:17;;;;;;;14.82;7.82;;;;;;;;;;4969985;28;20085;-54
2022/03/06 02:19:55;;;;;;;12.55;7.40;;;;;;;;;;4970623;28;20066;-53
2022/03/06 02:22:22;;;;;;;13.10;7.60;;;;;;;;;;4982885;28;20037;-53
2022/03/06 02:24:48;;;;;;;11.75;6.72;;;;;;;;;;4989457;28;20030;-54
2022/03/06 02:27:14;;;;;;;13.63;7.88;;;;;;;;;;4989858;28;20113;-53
2022/03/06 02:29:41;;;;;;;11.43;6.70;;;;;;;;;;4990064;28;20042;-53
2022/03/06 02:32:11;;;;;;;12.68;7.43;;;;;;;;;;4977995;28;20035;-53
2022/03/06 02:34:41;;;;;;;11.63;7.28;;;;;;;;;;4970483;28;20030;-53
2022/03/06 02:37:07;;;;;;;11.98;7.28;;;;;;;;;;4969584;28;20118;-54
2022/03/06 02:39:33;;;;;;;12.32;7.30;;;;;;;;;;4969390;28;20114;-53
2022/03/06 02:42:01;;;;;;;13.77;7.93;;;;;;;;;;4988069;28;20495;-53
2022/03/06 02:44:27;;;;;;;12.32;7.20;;;;;;;;;;4989206;28;20441;-53
2022/03/06 02:46:53;;;;;;;13.15;7.78;;;;;;;;;;4989019;28;20026;-52
2022/03/06 02:49:19;;;;;;;13.60;7.25;;;;;;;;;;4989117;28;20104;-54
2022/03/06 02:51:46;;;;;;;12.50;6.90;;;;;;;;;;4988069;28;20572;-52
2022/03/06 02:54:13;;;;;;;13.35;8.20;;;;;;;;;;4988306;28;20089;-53
2022/03/06 02:56:40;;;;;;;13.07;7.43;;;;;;;;;;4988803;28;20018;-53
2022/03/06 02:59:06;;;;;;;11.68;6.85;;;;;;;;;;4988458;28;20025;-54
2022/03/06 03:01:38;;;;;;;10.77;6.47;;;;;;;;;;4987619;28;20023;-53
2022/03/06 03:04:04;;;;;;;14.93;7.55;;;;;;;;;;4970279;28;20058;-54
2022/03/06 03:06:30;;;;;;;12.50;6.85;;;;;;;;;;4988195;28;20038;-53
2022/03/06 03:08:57;;;;;;;12.80;7.75;;;;;;;;;;4988821;28;20810;-54
2022/03/06 03:11:24;;;;;;;13.27;7.60;;;;;;;;;;4987582;28;20023;-54
2022/03/06 03:13:50;;;;;;;13.82;7.50;;;;;;;;;;4987416;28;20457;-53
2022/03/06 03:16:16;;;;;;;13.25;7.88;;;;;;;;;;4986612;28;20038;-53
2022/03/06 03:18:42;;;;;;;9.38;5.60;;;;;;;;;;4987379;28;20077;-53
2022/03/06 03:21:08;;;;;;;11.68;6.22;;;;;;;;;;4987149;28;20512;-53
2022/03/06 03:23:34;;;;;;;10.10;5.65;;;;;;;;;;4987180;28;20105;-53
2022/03/06 03:26:00;;;;;;;9.75;6.25;;;;;;;;;;4986397;28;20125;-54
2022/03/06 03:28:27;;;;;;;10.95;6.38;;;;;;;;;;4986332;28;20549;-54
2022/03/06 03:30:53;;;;;;;11.82;5.75;;;;;;;;;;4987441;28;20449;-54
2022/03/06 03:33:19;;;;;;;11.32;6.20;;;;;;;;;;4987554;28;20030;-54
2022/03/06 03:35:45;;;;;;;11.70;6.50;;;;;;;;;;4986935;28;20098;-54
2022/03/06 03:38:11;;;;;;;10.90;6.57;;;;;;;;;;4986706;28;20034;-54
2022/03/06 03:40:37;;;;;;;9.45;5.88;;;;;;;;;;4987255;28;20061;-52
2022/03/06 03:43:03;;;;;;;10.75;6.40;;;;;;;;;;4986678;28;20033;-54
2022/03/06 03:45:29;;;;;;;12.68;7.22;;;;;;;;;;4981406;28;20038;-53
2022/03/06 03:47:56;;;;;;;12.43;6.88;;;;;;;;;;4967690;28;20111;-53
2022/03/06 03:50:22;;;;;;;13.23;7.32;;;;;;;;;;4968093;28;20158;-53
2022/03/06 03:52:48;;;;;;;13.25;7.50;;;;;;;;;;4967216;28;20033;-53
2022/03/06 03:55:14;;;;;;;12.63;7.47;;;;;;;;;;4984952;28;20042;-52
2022/03/06 03:57:40;;;;;;;13.25;7.03;;;;;;;;;;4986932;28;20144;-53
2022/03/06 04:00:08;;;;;;;12.50;6.85;;;;;;;;;;4986670;28;20092;-53
2022/03/06 04:02:34;;;;;;;11.65;6.95;;;;;;;;;;4986985;28;20027;-53
2022/03/06 04:05:01;;;;;;;12.13;6.72;;;;;;;;;;4985535;28;20045;-53
2022/03/06 04:07:28;;;;;;;12.15;6.95;;;;;;;;;;4986877;28;20224;-54
2022/03/06 04:09:54;;;;;;;18.63;9.02;;;;;;;;;;4986923;28;20084;-53
2022/03/06 04:12:21;;;;;;;17.73;8.98;;;;;;;;;;4986569;28;20035;-51
2022/03/06 04:14:47;;;;;;;15.63;8.23;;;;;;;;;;4986181;28;20041;-52
2022/03/06 04:17:13;;;;;;;15.90;8.70;;;;;;;;;;4986697;28;20122;-54
2022/03/06 04:19:39;;;;;;;13.50;7.47;;;;;;;;;;4986345;28;20113;-54
2022/03/06 04:22:05;;;;;;;12.07;7.03;;;;;;;;;;4987047;28;20037;-53
2022/03/06 04:24:31;;;;;;;14.68;7.70;;;;;;;;;;4986396;28;20072;-53
2022/03/06 04:26:58;;;;;;;13.07;7.68;;;;;;;;;;4986214;28;20501;-53
2022/03/06 04:29:24;;;;;;;14.90;8.10;;;;;;;;;;4985721;28;20072;-54
2022/03/06 04:31:50;;;;;;;13.48;7.50;;;;;;;;;;4987069;28;20029;-53
2022/03/06 04:34:16;;;;;;;14.65;7.97;;;;;;;;;;4986905;28;21213;-53
2022/03/06 04:36:42;;;;;;;12.07;6.68;;;;;;;;;;4986622;28;20027;-53
2022/03/06 04:39:09;;;;;;;10.70;6.40;;;;;;;;;;4984839;28;20105;-53
2022/03/06 04:41:36;;;;;;;9.27;5.70;;;;;;;;;;4990028;28;20030;-53
2022/03/06 04:44:02;;;;;;;10.63;5.40;;;;;;;;;;4989993;28;20583;-54
2022/03/06 04:46:28;;;;;;;9.50;5.90;;;;;;;;;;4986882;28;20026;-52
2022/03/06 04:48:55;;;;;;;9.60;5.78;;;;;;;;;;4988447;28;20508;-53
2022/03/06 04:51:21;;;;;;;10.27;5.43;;;;;;;;;;4986935;28;20032;-53
2022/03/06 04:53:47;;;;;;;7.80;5.13;;;;;;;;;;4988506;28;20034;-53
2022/03/06 04:56:13;;;;;;;7.75;5.05;;;;;;;;;;4988038;28;20121;-54
2022/03/06 04:58:39;;;;;;;9.35;5.88;;;;;;;;;;4987640;28;20121;-53
2022/03/06 05:01:06;;;;;;;11.10;6.15;;;;;;;;;;4988167;28;20065;-53
2022/03/06 05:03:32;;;;;;;13.35;7.25;;;;;;;;;;4988320;28;20461;-52
2022/03/06 05:05:58;;;;;;;17.48;8.73;;;;;;;;;;4987536;28;20022;-52
2022/03/06 05:08:27;;;;;;;12.82;7.28;;;;;;;;;;4987378;28;20033;-54
2022/03/06 05:10:54;;;;;;;13.30;6.70;;;;;;;;;;4987925;28;20397;-52
2022/03/06 05:13:20;;;;;;;13.20;6.60;;;;;;;;;;4988191;28;20061;-53
2022/03/06 05:15:46;;;;;;;11.07;6.50;;;;;;;;;;4987952;28;20041;-53
2022/03/06 05:18:13;;;;;;;10.88;6.18;;;;;;;;;;4987085;28;20030;-53
2022/03/06 05:20:40;;;;;;;9.95;6.13;;;;;;;;;;4988004;28;20030;-52
2022/03/06 05:23:07;;;;;;;12.15;6.78;;;;;;;;;;4969765;28;20465;-52
2022/03/06 05:25:33;;;;;;;10.73;5.97;;;;;;;;;;4979633;28;20087;-53
2022/03/06 05:27:59;;;;;;;10.63;5.82;;;;;;;;;;4987501;28;20137;-53
2022/03/06 05:30:25;;;;;;;11.95;6.18;;;;;;;;;;4988387;28;20602;-54
2022/03/06 05:32:51;;;;;;;9.40;5.75;;;;;;;;;;4987981;28;20441;-53
2022/03/06 05:35:17;;;;;;;8.68;5.22;;;;;;;;;;4987008;28;20030;-54
2022/03/06 05:37:43;;;;;;;10.00;5.82;;;;;;;;;;4987105;28;20673;-53
2022/03/06 05:40:09;;;;;;;8.77;5.32;;;;;;;;;;4987042;28;20401;-54
2022/03/06 05:42:35;;;;;;;9.85;5.00;;;;;;;;;;4987323;28;20181;-52
2022/03/06 05:45:03;;;;;;;10.60;6.25;;;;;;;;;;4985834;28;20069;-53
2022/03/06 05:47:29;;;;;;;9.02;5.40;;;;;;;;;;4987106;28;20031;-53
2022/03/06 05:49:56;;;;;;;9.30;4.97;;;;;;;;;;4987638;28;20097;-53
2022/03/06 05:52:23;;;;;;;7.78;4.57;;;;;;;;;;4986635;28;20031;-53
2022/03/06 05:54:49;;;;;;;7.45;4.63;;;;;;;;;;4968115;28;20037;-53
2022/03/06 05:57:15;;;;;;;6.43;4.22;;;;;;;;;;4987078;28;20035;-53
2022/03/06 05:59:42;;;;;;;8.77;4.68;;;;;;;;;;4986960;28;20041;-53
2022/03/06 06:02:09;;;;;;;9.43;4.70;;;;;;;;;;4986908;28;20027;-53
2022/03/06 06:04:35;;;;;;;7.65;4.65;;;;;;;;;;4986876;28;20032;-52
2022/03/06 06:07:01;;;;;;;8.77;5.32;;;;;;;;;;4985559;28;20031;-51
2022/03/06 06:09:27;;;;;;;8.48;5.28;;;;;;;;;;4986867;28;21038;-53
2022/03/06 06:11:53;;;;;;;9.45;5.40;;;;;;;;;;4986678;28;20027;-54
2022/03/06 06:14:19;;;;;;;9.48;5.90;;;;;;;;;;4986860;28;20101;-53
2022/03/06 06:16:46;;;;;;;10.55;5.68;;;;;;;;;;4986233;28;20150;-53
2022/03/06 06:19:13;;;;;;;8.85;5.30;;;;;;;;;;4986854;28;20022;-52
2022/03/06 06:21:43;;;;;;;8.40;5.03;;;;;;;;;;4986658;28;20018;-53
2022/03/06 06:24:11;;;;;;;8.60;4.80;;;;;;;;;;4986072;28;20259;-54
2022/03/06 06:26:37;;;;;;;9.43;5.40;;;;;;;;;;4968124;28;20418;-53
2022/03/06 06:29:04;;;;;;;8.77;5.57;;;;;;;;;;4986178;28;20034;-53
2022/03/06 06:31:30;;;;;;;7.55;5.10;;;;;;;;;;4986606;28;20397;-54
2022/03/06 06:33:56;;;;;;;8.50;5.50;;;;;;;;;;4987139;28;20508;-52
2022/03/06 06:36:22;;;;;;;9.45;4.90;;;;;;;;;;4985131;28;20431;-53
2022/03/06 06:38:49;;;;;;;9.43;5.18;;;;;;;;;;4985177;28;20066;-53
2022/03/06 06:41:15;;;;;;;7.57;5.07;;;;;;;;;;4986432;28;20030;-53
2022/03/06 06:43:42;;;;;;;7.47;4.60;;;;;;;;;;4984159;28;20460;-53
2022/03/06 06:46:08;;;;;;;8.30;4.60;;;;;;;;;;4986957;28;20022;-53
2022/03/06 06:48:34;;;;;;;7.78;4.75;;;;;;;;;;4984789;28;20520;-53
2022/03/06 06:51:00;;;;;;;9.25;4.50;;;;;;;;;;4987679;28;20448;-53
2022/03/06 06:53:26;;;;;;;8.55;4.47;;;;;;;;;;4986892;28;20026;-53
2022/03/06 06:55:52;;;;;;;8.88;4.88;;;;;;;;;;4984680;28;20058;-54
2022/03/06 06:58:18;;;;;;;8.18;4.47;;;;;;;;;;4986056;28;20036;-53
2022/03/06 07:00:45;;;;;;;6.95;4.40;;;;;;;;;;4986415;28;20457;-52
2022/03/06 07:03:11;;;;;;;6.38;3.97;;;;;;;;;;4985307;28;20081;-54
2022/03/06 07:05:38;;;;;;;8.07;4.95;;;;;;;;;;4986170;28;20524;-53
2022/03/06 07:08:04;;;;;;;7.10;4.30;;;;;;;;;;4986399;28;20030;-53
2022/03/06 07:10:30;;;;;;;6.45;4.15;;;;;;;;;;4986114;28;20421;-54
2022/03/06 07:12:58;;;;;;;7.65;4.13;;;;;;;;;;4985819;28;20030;-53
2022/03/06 07:15:33;;;;;;;8.27;4.82;;;;;;;;;;4984670;28;20034;-53
2022/03/06 07:18:01;;;;;;;7.47;4.60;;;;;;;;;;4984386;28;20053;-53
2022/03/06 07:20:27;;;;;;;9.18;4.60;;;;;;;;;;4985776;28;20038;-53
2022/03/06 07:22:54;;;;;;;6.97;3.95;;;;;;;;;;4986024;28;20063;-54
2022/03/06 07:25:20;;;;;;;6.68;3.90;;;;;;;;;;4985702;28;20030;-53
2022/03/06 07:27:47;;;;;;;8.93;4.90;;;;;;;;;;4984606;28;20037;-53
2022/03/06 07:30:13;;;;;;;8.70;4.85;;;;;;;;;;4982787;28;20026;-54
2022/03/06 07:32:46;;;;;;;7.53;4.40;;;;;;;;;;4987451;28;20030;-54
2022/03/06 07:35:13;;;;;;;7.23;4.07;;;;;;;;;;4979594;28;20097;-54
2022/03/06 07:37:39;;;;;;;7.28;4.70;;;;;;;;;;4967725;28;20053;-54
2022/03/06 07:40:06;;;;;;;7.50;4.20;;;;;;;;;;4977577;28;20460;-53
2022/03/06 07:42:32;;;;;;;7.80;4.45;;;;;;;;;;4982360;28;20026;-54
2022/03/06 07:44:58;;;;;;;6.45;4.22;;;;;;;;;;4967425;28;20093;-54
2022/03/06 07:47:24;;;;;;;6.25;3.88;;;;;;;;;;4967605;28;20042;-54
2022/03/06 07:49:50;;;;;;;7.30;4.18;;;;;;;;;;4967443;28;20046;-54
2022/03/06 07:52:16;;;;;;;6.05;3.45;;;;;;;;;;4968731;28;20498;-52
2022/03/06 07:54:42;;;;;;;7.13;4.15;;;;;;;;;;4986024;28;20496;-54
2022/03/06 07:57:08;;;;;;;7.35;4.25;;;;;;;;;;4987196;28;20112;-53
2022/03/06 07:59:37;;;;;;;7.78;3.92;;;;;;;;;;4987470;28;20026;-54
2022/03/06 08:02:04;;;;;;;7.03;4.30;;;;;;;;;;4985088;28;20035;-53
2022/03/06 08:04:30;;;;;;;6.32;4.13;;;;;;;;;;4980454;28;20101;-53
2022/03/06 08:06:56;;;;;;;7.63;4.68;;;;;;;;;;4986667;28;20029;-53
2022/03/06 08:09:25;;;;;;;6.82;4.07;;;;;;;;;;4987034;28;20556;-54
2022/03/06 08:11:52;;;;;;;8.60;4.90;;;;;;;;;;4986364;28;20026;-53
2022/03/06 08:14:18;;;;;;;7.97;4.43;;;;;;;;;;4985827;28;20037;-53
2022/03/06 08:16:44;;;;;;;8.65;4.82;;;;;;;;;;4990576;28;20397;-53
2022/03/06 08:19:11;;;;;;;6.78;4.47;;;;;;;;;;4989632;28;20022;-53
2022/03/06 08:21:39;;;;;;;8.45;4.80;;;;;;;;;;4977415;28;20080;-53
2022/03/06 08:24:05;;;;;;;8.55;4.47;;;;;;;;;;4989968;28;20085;-53
2022/03/06 08:26:31;;;;;;;9.27;4.75;;;;;;;;;;4987076;28;20026;-54
2022/03/06 08:28:57;;;;;;;8.70;5.18;;;;;;;;;;4990417;28;20108;-53
2022/03/06 08:31:24;;;;;;;10.32;5.05;;;;;;;;;;4990563;28;20031;-54
2022/03/06 08:33:52;;;;;;;8.90;5.30;;;;;;;;;;4990213;28;20042;-54
2022/03/06 08:36:18;;;;;;;9.25;4.78;;;;;;;;;;4989118;28;20065;-53
2022/03/06 08:38:45;;;;;;;9.07;5.13;;;;;;;;;;4988363;28;20030;-53
2022/03/06 08:41:11;;;;;;;11.00;6.63;;;;;;;;;;4987231;28;20118;-53
2022/03/06 08:43:37;;;;;;;17.10;8.57;;;;;;;;;;4989399;28;20038;-53
2022/03/06 08:46:03;;;;;;;15.40;7.93;;;;;;;;;;4985017;28;20038;-53
2022/03/06 08:48:30;;;;;;;17.85;9.13;;;;;;;;;;4989094;28;20089;-53
2022/03/06 08:50:57;;;;;;;16.85;8.35;;;;;;;;;;4991585;28;20065;-53
2022/03/06 08:53:23;;;;;;;16.98;8.30;;;;;;;;;;4988786;28;20026;-54
2022/03/06 08:55:49;;;;;;;13.35;6.68;;;;;;;;;;4989135;28;20105;-53
2022/03/06 08:58:15;;;;;;;12.68;6.78;;;;;;;;;;4989533;28;20046;-53
2022/03/06 09:00:41;;;;;;;15.13;6.90;;;;;;;;;;4991299;28;20555;-53
2022/03/06 09:03:07;;;;;;;11.02;6.20;;;;;;;;;;4986347;28;20033;-54
2022/03/06 09:05:38;;;;;;;11.20;5.80;;;;;;;;;;4989474;28;20069;-52
2022/03/06 09:08:04;;;;;;;16.95;8.38;;;;;;;;;;4988727;28;20034;-54
2022/03/06 09:10:30;;;;;;;18.13;7.93;;;;;;;;;;4989347;28;20030;-53
2022/03/06 09:13:00;;;;;;;13.93;7.28;;;;;;;;;;4990027;28;20026;-53
2022/03/06 09:15:26;;;;;;;14.65;6.60;;;;;;;;;;4989425;28;20030;-54
2022/03/06 09:17:52;;;;;;;14.38;6.40;;;;;;;;;;4990723;28;20084;-53
2022/03/06 09:20:18;;;;;;;13.35;6.80;;;;;;;;;;4989527;28;20034;-53
2022/03/06 09:22:46;;;;;;;13.00;6.60;;;;;;;;;;4989697;28;20401;-54
2022/03/06 09:25:12;;;;;;;13.20;5.95;;;;;;;;;;4989684;28;20030;-54
2022/03/06 09:27:38;;;;;;;13.77;6.18;;;;;;;;;;4987331;28;20093;-54
2022/03/06 09:30:05;;;;;;;13.13;5.93;;;;;;;;;;4987942;28;20671;-53
2022/03/06 09:32:31;;;;;;;10.73;5.20;;;;;;;;;;4985600;28;20065;-53
2022/03/06 09:34:57;;;;;;;10.73;5.95;;;;;;;;;;4970547;28;20397;-54
2022/03/06 09:37:23;;;;;;;9.77;5.15;;;;;;;;;;4971064;28;20025;-54
2022/03/06 09:39:49;;;;;;;8.93;5.10;;;;;;;;;;4985243;28;20042;-52
2022/03/06 09:42:19;;;;;;;8.20;4.85;;;;;;;;;;4990066;28;20448;-53
2022/03/06 09:44:49;;;;;;;7.15;4.20;;;;;;;;;;4986125;28;20093;-53
2022/03/06 09:47:15;;;;;;;8.23;4.72;;;;;;;;;;4972595;28;20386;-54
2022/03/06 09:49:45;;;;;;;6.15;3.92;;;;;;;;;;4988820;28;20080;-54
2022/03/06 09:52:11;;;;;;;6.63;4.32;;;;;;;;;;4989571;28;20026;-56
2022/03/06 09:54:38;;;;;;;7.00;3.88;;;;;;;;;;4985763;28;20037;-52
2022/03/06 09:57:05;;;;;;;7.05;3.90;;;;;;;;;;4971534;28;20054;-53
2022/03/06 09:59:31;;;;;;;6.10;3.90;;;;;;;;;;4971767;28;20517;-54
2022/03/06 10:02:05;;;;;;;8.15;4.18;;;;;;;;;;4987756;28;20029;-52
2022/03/06 10:04:32;;;;;;;8.75;4.95;;;;;;;;;;4988802;28;20095;-53
2022/03/06 10:07:05;;;;;;;7.80;4.38;;;;;;;;;;4988312;28;20026;-54
2022/03/06 10:09:31;;;;;;;6.10;3.90;;;;;;;;;;4988474;28;20078;-53
2022/03/06 10:11:58;;;;;;;7.60;4.55;;;;;;;;;;4989054;28;20421;-53
2022/03/06 10:14:40;;;;;;;6.43;4.50;;;;;;;;;;4988590;28;20037;-52
2022/03/06 10:17:10;;;;;;;8.25;4.30;;;;;;;;;;4988935;28;20018;-54
2022/03/06 10:19:50;;;;;;;7.25;4.57;;;;;;;;;;4989556;28;20493;-53
2022/03/06 10:22:16;;;;;;;7.57;4.55;;;;;;;;;;4976882;28;20081;-52
2022/03/06 10:25:01;;;;;;;8.55;5.43;;;;;;;;;;4989028;28;20064;-53
2022/03/06 10:27:46;;;;;;;8.27;4.70;;;;;;;;;;4986080;28;20034;-54
2022/03/06 10:30:31;;;;;;;7.63;4.07;;;;;;;;;;4990979;28;20034;-55
2022/03/06 10:32:58;;;;;;;8.30;4.78;;;;;;;;;;4993724;28;20053;-54
2022/03/06 10:35:25;;;;;;;7.18;4.30;;;;;;;;;;4971024;28;20461;-54
2022/03/06 10:37:51;;;;;;;9.63;5.65;;;;;;;;;;4987862;28;20045;-54
2022/03/06 10:40:31;;;;;;;6.93;4.25;;;;;;;;;;4985626;28;20035;-55
2022/03/06 10:42:57;;;;;;;6.38;4.30;;;;;;;;;;4988655;28;20030;-54
2022/03/06 10:45:23;;;;;;;9.73;4.75;;;;;;;;;;4982899;28;20053;-53
2022/03/06 10:47:49;;;;;;;8.88;5.93;;;;;;;;;;4986666;28;20030;-53
2022/03/06 10:50:21;;;;;;;8.07;5.10;;;;;;;;;;4988213;28;20046;-53
2022/03/06 10:52:47;;;;;;;8.73;5.15;;;;;;;;;;4984112;28;20027;-55
2022/03/06 10:55:13;;;;;;;8.70;5.30;;;;;;;;;;4974745;28;20401;-54
2022/03/06 10:57:40;;;;;;;7.97;5.00;;;;;;;;;;4987316;28;20038;-55
2022/03/06 11:00:07;;;;;;;7.95;4.85;;;;;;;;;;4987951;28;20674;-54
2022/03/06 11:02:33;;;;;;;7.78;4.65;;;;;;;;;;4986066;28;20033;-54
2022/03/06 11:05:00;;;;;;;6.68;4.63;;;;;;;;;;4985772;28;20030;-53
2022/03/06 11:07:29;;;;;;;6.85;4.05;;;;;;;;;;4977235;28;20022;-54
2022/03/06 11:09:57;;;;;;;8.25;4.97;;;;;;;;;;4987734;28;20033;-55
2022/03/06 11:12:26;;;;;;;9.65;5.82;;;;;;;;;;4985990;28;20042;-55
2022/03/06 11:14:52;;;;;;;9.85;5.63;;;;;;;;;;4971018;28;20129;-54
2022/03/06 11:17:19;;;;;;;9.50;5.60;;;;;;;;;;4987509;28;20084;-54
2022/03/06 11:19:46;;;;;;;8.45;5.00;;;;;;;;;;4987691;28;20031;-54
2022/03/06 11:22:25;;;;;;;7.78;4.53;;;;;;;;;;4986975;28;20081;-54
2022/03/06 11:24:52;;;;;;;8.38;4.65;;;;;;;;;;4985862;28;20030;-55
2022/03/06 11:27:37;;;;;;;9.00;5.07;;;;;;;;;;4987604;28;20037;-55
2022/03/06 11:30:07;;;;;;;9.10;5.43;;;;;;;;;;4986760;28;20091;-54
2022/03/06 11:32:37;;;;;;;13.80;7.00;;;;;;;;;;4987813;28;20133;-54
2022/03/06 11:35:07;;;;;;;13.27;7.05;;;;;;;;;;4985007;28;20509;-53
2022/03/06 11:37:48;;;;;;;14.27;8.13;;;;;;;;;;4986751;28;20481;-52
2022/03/06 11:40:33;;;;;;;15.30;8.65;;;;;;;;;;4987735;28;20205;-54
2022/03/06 11:42:59;;;;;;;12.57;7.60;;;;;;;;;;4982294;28;20037;-55
2022/03/06 11:45:51;;;;;;;14.80;8.20;;;;;;;;;;4987606;28;20038;-54
2022/03/06 11:48:23;;;;;;;11.95;6.93;;;;;;;;;;4984007;28;20030;-54
2022/03/06 11:51:08;;;;;;;12.45;6.65;;;;;;;;;;4985360;28;20100;-55
2022/03/06 11:53:47;;;;;;;15.02;8.35;;;;;;;;;;4986591;28;20036;-55
2022/03/06 11:56:32;;;;;;;14.23;7.80;;;;;;;;;;4987396;28;20031;-54
2022/03/06 11:59:02;;;;;;;13.75;7.65;;;;;;;;;;4986544;28;20031;-54
2022/03/06 12:01:28;;;;;;;11.10;6.53;;;;;;;;;;4987316;28;20109;-54
2022/03/06 12:04:01;;;;;;;13.27;7.80;;;;;;;;;;4984074;28;20126;-55
2022/03/06 12:06:27;;;;;;;12.25;6.85;;;;;;;;;;4985468;28;20067;-54
2022/03/06 12:08:54;;;;;;;11.07;6.88;;;;;;;;;;4985968;28;20034;-55
2022/03/06 12:11:21;;;;;;;11.25;6.90;;;;;;;;;;4987292;28;20057;-52
2022/03/06 12:13:50;;;;;;;9.80;6.10;;;;;;;;;;4986281;28;20034;-55
2022/03/06 12:16:17;;;;;;;10.55;6.50;;;;;;;;;;4984497;28;20088;-54
2022/03/06 12:19:02;;;;;;;11.90;6.90;;;;;;;;;;4983429;28;20038;-53
2022/03/06 12:21:37;;;;;;;10.43;6.18;;;;;;;;;;4983124;28;20031;-54
2022/03/06 12:24:27;;;;;;;8.82;5.68;;;;;;;;;;4985599;28;20625;-54
2022/03/06 12:26:53;;;;;;;9.43;5.97;;;;;;;;;;4986720;28;20113;-54
2022/03/06 12:29:40;;;;;;;12.77;6.82;;;;;;;;;;4987138;28;20101;-54
2022/03/06 12:32:24;;;;;;;9.00;6.18;;;;;;;;;;4936328;28;20038;-54
2022/03/06 12:34:59;;;;;;;13.25;8.45;;;;;;;;;;4986376;28;20102;-54
2022/03/06 12:37:29;;;;;;;12.95;8.10;;;;;;;;;;4986472;28;20026;-53
2022/03/06 12:39:56;;;;;;;10.30;6.93;;;;;;;;;;4986073;28;20029;-54
2022/03/06 12:42:29;;;;;;;9.02;6.03;;;;;;;;;;4985609;28;20042;-54
2022/03/06 12:44:57;;;;;;;12.00;7.50;;;;;;;;;;4985369;28;20031;-53
2022/03/06 12:47:23;;;;;;;11.45;6.97;;;;;;;;;;4987038;28;20027;-54
2022/03/06 12:49:49;;;;;;;10.48;6.80;;;;;;;;;;4985455;28;20484;-54
2022/03/06 12:52:23;;;;;;;8.98;5.35;;;;;;;;;;4984910;28;20400;-54
2022/03/06 12:54:50;;;;;;;9.00;5.43;;;;;;;;;;4984489;28;20022;-53
2022/03/06 12:57:16;;;;;;;10.35;7.15;;;;;;;;;;4985166;28;20780;-54
2022/03/06 12:59:43;;;;;;;10.55;6.53;;;;;;;;;;4985913;28;20023;-54
2022/03/06 13:02:10;;;;;;;11.68;8.35;;;;;;;;;;4988192;28;20071;-53
2022/03/06 13:04:37;;;;;;;11.15;7.05;;;;;;;;;;4988072;28;20389;-56
2022/03/06 13:07:04;;;;;;;10.68;6.85;;;;;;;;;;4974159;28;20508;-56
2022/03/06 13:09:34;;;;;;;10.90;7.10;;;;;;;;;;4989491;28;20488;-56
2022/03/06 13:12:01;;;;;;;8.43;5.43;;;;;;;;;;4988931;28;20030;-56
2022/03/06 13:14:28;;;;;;;9.52;5.72;;;;;;;;;;4989642;28;20521;-56
2022/03/06 13:16:55;;;;;;;7.43;5.20;;;;;;;;;;4988347;28;20034;-57
2022/03/06 13:19:22;;;;;;;8.13;4.88;;;;;;;;;;4989720;28;20054;-57
2022/03/06 13:21:48;;;;;;;9.50;5.75;;;;;;;;;;4983652;28;20157;-56
2022/03/06 13:24:15;;;;;;;10.13;5.85;;;;;;;;;;4983406;28;20062;-56
2022/03/06 13:26:42;;;;;;;8.50;6.38;;;;;;;;;;4982356;28;20384;-56
2022/03/06 13:29:14;;;;;;;9.70;6.45;;;;;;;;;;4987284;28;20398;-56
2022/03/06 13:31:40;;;;;;;10.13;6.22;;;;;;;;;;4987892;28;20026;-56
2022/03/06 13:34:07;;;;;;;7.75;5.43;;;;;;;;;;4986778;28;20571;-56
2022/03/06 13:36:36;;;;;;;7.57;5.25;;;;;;;;;;4987647;28;20121;-56
2022/03/06 13:39:05;;;;;;;6.60;4.90;;;;;;;;;;4970115;28;20058;-56
2022/03/06 13:41:33;;;;;;;8.18;5.68;;;;;;;;;;4978005;28;20033;-55
2022/03/06 13:43:59;;;;;;;7.78;5.25;;;;;;;;;;4987587;28;20121;-56
2022/03/06 13:46:26;;;;;;;6.65;4.50;;;;;;;;;;4987186;28;20037;-56
2022/03/06 13:49:07;;;;;;;7.50;4.90;;;;;;;;;;4989243;28;20460;-54
2022/03/06 13:51:33;;;;;;;6.93;4.70;;;;;;;;;;4987859;28;20066;-56
2022/03/06 13:54:00;;;;;;;8.85;6.05;;;;;;;;;;4988043;28;20031;-55
2022/03/06 13:56:30;;;;;;;9.40;6.63;;;;;;;;;;4985101;28;20046;-56
2022/03/06 13:58:57;;;;;;;7.28;5.07;;;;;;;;;;4988542;28;20054;-56
2022/03/06 14:01:25;;;;;;;7.82;5.13;;;;;;;;;;4989551;28;20578;-56
2022/03/06 14:03:57;;;;;;;6.40;4.55;;;;;;;;;;4989224;28;20081;-55
2022/03/06 14:06:32;;;;;;;10.43;5.75;;;;;;;;;;4988745;28;20026;-56
2022/03/06 14:08:58;;;;;;;7.18;5.18;;;;;;;;;;4988173;28;20557;-56
2022/03/06 14:11:25;;;;;;;7.63;5.70;;;;;;;;;;4984996;28;20512;-56
2022/03/06 14:13:53;;;;;;;8.57;5.90;;;;;;;;;;4973890;28;20091;-56
2022/03/06 14:16:19;;;;;;;7.18;4.95;;;;;;;;;;4972238;28;20039;-57
2022/03/06 14:18:49;;;;;;;6.05;4.38;;;;;;;;;;4988439;28;20030;-57
2022/03/06 14:21:18;;;;;;;8.68;5.43;;;;;;;;;;4988636;28;20034;-56
2022/03/06 14:23:44;;;;;;;9.70;5.65;;;;;;;;;;4982984;28;20084;-57
2022/03/06 14:26:10;;;;;;;8.80;5.68;;;;;;;;;;4987584;28;20038;-57
2022/03/06 14:28:36;;;;;;;6.75;5.03;;;;;;;;;;4980986;28;20023;-57
2022/03/06 14:31:02;;;;;;;7.20;4.88;;;;;;;;;;4985067;28;20058;-57
2022/03/06 14:33:29;;;;;;;7.90;5.13;;;;;;;;;;4968369;28;20056;-56
2022/03/06 14:35:56;;;;;;;7.05;4.85;;;;;;;;;;4968419;28;20041;-56
2022/03/06 14:38:22;;;;;;;6.72;4.55;;;;;;;;;;4984254;28;20043;-56
2022/03/06 14:40:49;;;;;;;7.47;5.32;;;;;;;;;;4967852;28;20034;-56